sensor_id;sensor_type;location;lat;lon;timestamp;temperature;humidity
19561;DHT22;9927;47.792;10.616;2023-04-25T03:01:20;6.20;99.90
19561;DHT22;9927;47.792;10.616;2023-04-25T03:03:47;6.20;99.90
19561;DHT22;9927;47.792;10.616;2023-04-25T03:06:15;6.20;99.90
19561;DHT22;9927;47.792;10.616;2023-04-25T03:08:43;6.20;99.90
19561;DHT22;9927;47.792;10.616;2023-04-25T03:11:10;6.20;99.90
19561;DHT22;9927;47.792;10.616;2023-04-25T03:13:37;6.20;99.90
19561;DHT22;9927;47.792;10.616;2023-04-25T03:16:05;6.20;99.90
19561;DHT22;9927;47.792;10.616;2023-04-25T03:18:32;6.20;99.90
19561;DHT22;9927;47.792;10.616;2023-04-25T03:20:59;6.20;99.90
19561;DHT22;9927;47.792;10.616;2023-04-25T03:23:26;6.30;99.90
19561;DHT22;9927;47.792;10.616;2023-04-25T03:25:54;6.40;99.90
19561;DHT22;9927;47.792;10.616;2023-04-25T03:28:21;6.40;99.90
19561;DHT22;9927;47.792;10.616;2023-04-25T03:30:49;6.50;99.90
19561;DHT22;9927;47.792;10.616;2023-04-25T03:33:16;6.60;99.90
19561;DHT22;9927;47.792;10.616;2023-04-25T03:35:43;6.70;99.90
19561;DHT22;9927;47.792;10.616;2023-04-25T03:38:10;6.80;99.90
19561;DHT22;9927;47.792;10.616;2023-04-25T03:40:37;6.90;99.90
19561;DHT22;9927;47.792;10.616;2023-04-25T03:43:05;6.80;99.90
19561;DHT22;9927;47.792;10.616;2023-04-25T03:45:32;6.80;99.90
19561;DHT22;9927;47.792;10.616;2023-04-25T03:47:59;6.80;99.90
19561;DHT22;9927;47.792;10.616;2023-04-25T03:50:27;6.70;99.90
19561;DHT22;9927;47.792;10.616;2023-04-25T03:52:54;6.70;99.90
19561;DHT22;9927;47.792;10.616;2023-04-25T03:55:21;6.70;99.90
19561;DHT22;9927;47.792;10.616;2023-04-25T03:57:48;6.70;99.90
19561;DHT22;9927;47.792;10.616;2023-04-25T04:00:16;6.80;99.90
19561;DHT22;9927;47.792;10.616;2023-04-25T04:02:43;6.80;99.90
19561;DHT22;9927;47.792;10.616;2023-04-25T04:05:11;6.80;99.90
19561;DHT22;9927;47.792;10.616;2023-04-25T04:07:39;6.80;99.90
19561;DHT22;9927;47.792;10.616;2023-04-25T04:10:07;6.80;99.90
19561;DHT22;9927;47.792;10.616;2023-04-25T04:12:35;6.80;99.90
19561;DHT22;9927;47.792;10.616;2023-04-25T04:15:03;6.80;99.90
19561;DHT22;9927;47.792;10.616;2023-04-25T04:17:31;6.70;99.90
19561;DHT22;9927;47.792;10.616;2023-04-25T04:19:59;6.70;99.90
19561;DHT22;9927;47.792;10.616;2023-04-25T04:22:26;6.60;99.90
19561;DHT22;9927;47.792;10.616;2023-04-25T04:24:54;6.60;99.90
19561;DHT22;9927;47.792;10.616;2023-04-25T04:27:21;6.60;99.90
19561;DHT22;9927;47.792;10.616;2023-04-25T04:29:49;6.60;99.90
19561;DHT22;9927;47.792;10.616;2023-04-25T04:32:19;6.70;99.90
19561;DHT22;9927;47.792;10.616;2023-04-25T04:34:46;6.70;99.90
19561;DHT22;9927;47.792;10.616;2023-04-25T04:37:14;6.80;99.90
19561;DHT22;9927;47.792;10.616;2023-04-25T04:39:41;6.90;99.90
19561;DHT22;9927;47.792;10.616;2023-04-25T04:42:09;6.90;99.90
19561;DHT22;9927;47.792;10.616;2023-04-25T04:44:38;6.80;99.90
19561;DHT22;9927;47.792;10.616;2023-04-25T04:47:06;6.80;99.90
19561;DHT22;9927;47.792;10.616;2023-04-25T04:49:33;6.70;99.90
19561;DHT22;9927;47.792;10.616;2023-04-25T04:52:00;6.60;99.90
19561;DHT22;9927;47.792;10.616;2023-04-25T04:54:27;6.60;99.90
19561;DHT22;9927;47.792;10.616;2023-04-25T04:56:55;6.70;99.90
19561;DHT22;9927;47.792;10.616;2023-04-25T04:59:22;6.80;99.90
19561;DHT22;9927;47.792;10.616;2023-04-25T05:01:49;6.90;99.90
19561;DHT22;9927;47.792;10.616;2023-04-25T05:04:16;7.00;99.90
19561;DHT22;9927;47.792;10.616;2023-04-25T05:06:44;7.10;99.90
19561;DHT22;9927;47.792;10.616;2023-04-25T05:09:14;7.10;99.90
19561;DHT22;9927;47.792;10.616;2023-04-25T05:11:42;7.10;99.90
19561;DHT22;9927;47.792;10.616;2023-04-25T05:14:09;7.10;99.90
19561;DHT22;9927;47.792;10.616;2023-04-25T05:16:36;7.20;99.90
19561;DHT22;9927;47.792;10.616;2023-04-25T05:19:03;7.30;99.90
19561;DHT22;9927;47.792;10.616;2023-04-25T05:21:31;7.40;99.90
19561;DHT22;9927;47.792;10.616;2023-04-25T05:23:58;7.40;99.90
19561;DHT22;9927;47.792;10.616;2023-04-25T05:26:25;7.50;99.90
19561;DHT22;9927;47.792;10.616;2023-04-25T05:28:52;8.00;99.90
19561;DHT22;9927;47.792;10.616;2023-04-25T05:31:20;8.30;99.90
19561;DHT22;9927;47.792;10.616;2023-04-25T05:33:47;8.40;99.90
19561;DHT22;9927;47.792;10.616;2023-04-25T05:36:14;9.00;99.90
19561;DHT22;9927;47.792;10.616;2023-04-25T05:38:42;9.50;99.90
19561;DHT22;9927;47.792;10.616;2023-04-25T05:41:09;10.10;99.90
19561;DHT22;9927;47.792;10.616;2023-04-25T05:43:37;10.00;99.90
19561;DHT22;9927;47.792;10.616;2023-04-25T05:46:04;9.80;99.90
19561;DHT22;9927;47.792;10.616;2023-04-25T05:48:31;9.40;99.90
19561;DHT22;9927;47.792;10.616;2023-04-25T05:50:58;9.40;99.90
19561;DHT22;9927;47.792;10.616;2023-04-25T05:53:26;9.40;99.90
19561;DHT22;9927;47.792;10.616;2023-04-25T05:55:53;9.70;99.90
19561;DHT22;9927;47.792;10.616;2023-04-25T05:58:20;9.80;99.90
19561;DHT22;9927;47.792;10.616;2023-04-25T06:00:48;9.90;99.90
19561;DHT22;9927;47.792;10.616;2023-04-25T06:03:15;10.00;99.90
19561;DHT22;9927;47.792;10.616;2023-04-25T06:05:46;9.70;99.90
19561;DHT22;9927;47.792;10.616;2023-04-25T06:08:14;9.70;99.90
19561;DHT22;9927;47.792;10.616;2023-04-25T06:10:41;9.70;99.90
19561;DHT22;9927;47.792;10.616;2023-04-25T06:13:08;9.80;99.90
19561;DHT22;9927;47.792;10.616;2023-04-25T06:15:35;9.90;99.90
19561;DHT22;9927;47.792;10.616;2023-04-25T06:18:03;9.70;99.90
19561;DHT22;9927;47.792;10.616;2023-04-25T06:20:30;9.40;99.90
19561;DHT22;9927;47.792;10.616;2023-04-25T06:22:57;9.40;99.90
19561;DHT22;9927;47.792;10.616;2023-04-25T06:25:24;9.50;99.90
19561;DHT22;9927;47.792;10.616;2023-04-25T06:27:51;9.60;99.90
19561;DHT22;9927;47.792;10.616;2023-04-25T06:30:19;9.70;99.90
19561;DHT22;9927;47.792;10.616;2023-04-25T06:32:49;9.60;99.90
19561;DHT22;9927;47.792;10.616;2023-04-25T06:35:16;9.40;99.90
19561;DHT22;9927;47.792;10.616;2023-04-25T06:37:44;9.20;99.90
19561;DHT22;9927;47.792;10.616;2023-04-25T06:40:11;9.30;99.90
19561;DHT22;9927;47.792;10.616;2023-04-25T06:42:38;9.20;99.90
19561;DHT22;9927;47.792;10.616;2023-04-25T06:45:06;9.10;99.90
19561;DHT22;9927;47.792;10.616;2023-04-25T06:47:33;9.30;99.90
19561;DHT22;9927;47.792;10.616;2023-04-25T06:50:00;10.40;99.90
19561;DHT22;9927;47.792;10.616;2023-04-25T06:52:28;11.40;99.90
19561;DHT22;9927;47.792;10.616;2023-04-25T06:54:55;12.40;99.90
19561;DHT22;9927;47.792;10.616;2023-04-25T06:57:22;13.60;99.90
19561;DHT22;9927;47.792;10.616;2023-04-25T06:59:49;13.90;99.90
19561;DHT22;9927;47.792;10.616;2023-04-25T07:02:16;14.20;99.90
19561;DHT22;9927;47.792;10.616;2023-04-25T07:04:43;14.50;99.90
19561;DHT22;9927;47.792;10.616;2023-04-25T07:07:13;15.70;99.90
19561;DHT22;9927;47.792;10.616;2023-04-25T07:09:40;15.80;99.90
19561;DHT22;9927;47.792;10.616;2023-04-25T07:12:07;15.50;99.30
19561;DHT22;9927;47.792;10.616;2023-04-25T07:14:34;15.40;99.90
19561;DHT22;9927;47.792;10.616;2023-04-25T07:17:01;15.30;99.90
19561;DHT22;9927;47.792;10.616;2023-04-25T07:19:29;14.90;99.90
19561;DHT22;9927;47.792;10.616;2023-04-25T07:21:56;15.10;99.10
19561;DHT22;9927;47.792;10.616;2023-04-25T07:24:23;14.40;99.90
19561;DHT22;9927;47.792;10.616;2023-04-25T07:26:51;14.30;98.70
19561;DHT22;9927;47.792;10.616;2023-04-25T07:29:18;14.10;98.30
19561;DHT22;9927;47.792;10.616;2023-04-25T07:31:45;13.80;99.50
19561;DHT22;9927;47.792;10.616;2023-04-25T07:34:12;13.30;99.20
19561;DHT22;9927;47.792;10.616;2023-04-25T07:36:40;12.80;99.90
19561;DHT22;9927;47.792;10.616;2023-04-25T07:39:07;12.10;99.90
19561;DHT22;9927;47.792;10.616;2023-04-25T07:41:36;11.70;99.90
19561;DHT22;9927;47.792;10.616;2023-04-25T07:44:03;12.40;99.90
19561;DHT22;9927;47.792;10.616;2023-04-25T07:46:30;13.30;99.90
19561;DHT22;9927;47.792;10.616;2023-04-25T07:48:58;13.30;99.90
19561;DHT22;9927;47.792;10.616;2023-04-25T07:51:25;14.00;99.90
19561;DHT22;9927;47.792;10.616;2023-04-25T07:53:52;14.20;97.80
19561;DHT22;9927;47.792;10.616;2023-04-25T07:56:20;14.40;99.40
19561;DHT22;9927;47.792;10.616;2023-04-25T07:58:47;13.80;98.00
19561;DHT22;9927;47.792;10.616;2023-04-25T08:01:14;13.10;98.70
19561;DHT22;9927;47.792;10.616;2023-04-25T08:03:41;12.60;99.70
19561;DHT22;9927;47.792;10.616;2023-04-25T08:06:09;12.80;99.90
19561;DHT22;9927;47.792;10.616;2023-04-25T08:08:37;12.90;99.90
19561;DHT22;9927;47.792;10.616;2023-04-25T08:11:04;13.90;99.30
19561;DHT22;9927;47.792;10.616;2023-04-25T08:13:31;14.30;99.20
19561;DHT22;9927;47.792;10.616;2023-04-25T08:15:58;14.10;97.20
19561;DHT22;9927;47.792;10.616;2023-04-25T08:18:26;13.90;98.40
19561;DHT22;9927;47.792;10.616;2023-04-25T08:20:53;14.30;97.60
19561;DHT22;9927;47.792;10.616;2023-04-25T08:23:20;14.00;97.80
19561;DHT22;9927;47.792;10.616;2023-04-25T08:25:47;13.60;97.50
19561;DHT22;9927;47.792;10.616;2023-04-25T08:28:15;14.60;99.10
19561;DHT22;9927;47.792;10.616;2023-04-25T08:30:43;14.90;96.20
19561;DHT22;9927;47.792;10.616;2023-04-25T08:33:10;15.00;96.60
19561;DHT22;9927;47.792;10.616;2023-04-25T08:35:38;14.90;95.50
19561;DHT22;9927;47.792;10.616;2023-04-25T08:38:05;14.00;94.60
19561;DHT22;9927;47.792;10.616;2023-04-25T08:40:37;13.30;97.60
19561;DHT22;9927;47.792;10.616;2023-04-25T08:43:06;13.40;97.90
19561;DHT22;9927;47.792;10.616;2023-04-25T08:45:42;13.00;97.10
19561;DHT22;9927;47.792;10.616;2023-04-25T08:48:12;13.30;98.60
19561;DHT22;9927;47.792;10.616;2023-04-25T08:53:13;13.90;97.10
19561;DHT22;9927;47.792;10.616;2023-04-25T08:55:46;14.00;97.00
19561;DHT22;9927;47.792;10.616;2023-04-25T08:58:13;14.20;96.80
19561;DHT22;9927;47.792;10.616;2023-04-25T09:00:41;14.10;97.90
19561;DHT22;9927;47.792;10.616;2023-04-25T09:03:09;14.10;98.10
19561;DHT22;9927;47.792;10.616;2023-04-25T09:05:37;14.10;97.10
19561;DHT22;9927;47.792;10.616;2023-04-25T09:08:07;13.90;96.90
19561;DHT22;9927;47.792;10.616;2023-04-25T09:10:35;14.20;98.10
19561;DHT22;9927;47.792;10.616;2023-04-25T09:13:14;14.30;98.40
19561;DHT22;9927;47.792;10.616;2023-04-25T09:15:51;14.60;98.30
19561;DHT22;9927;47.792;10.616;2023-04-25T09:21:05;14.40;98.30
19561;DHT22;9927;47.792;10.616;2023-04-25T09:23:45;14.80;98.10
19561;DHT22;9927;47.792;10.616;2023-04-25T09:26:19;15.00;98.20
19561;DHT22;9927;47.792;10.616;2023-04-25T09:28:47;14.70;95.60
19561;DHT22;9927;47.792;10.616;2023-04-25T09:31:23;13.00;97.20
19561;DHT22;9927;47.792;10.616;2023-04-25T09:33:59;11.50;99.90
19561;DHT22;9927;47.792;10.616;2023-04-25T09:36:30;10.40;99.90
19561;DHT22;9927;47.792;10.616;2023-04-25T09:38:59;9.80;99.90
19561;DHT22;9927;47.792;10.616;2023-04-25T09:41:27;9.80;99.90
19561;DHT22;9927;47.792;10.616;2023-04-25T09:43:57;9.80;99.90
19561;DHT22;9927;47.792;10.616;2023-04-25T09:46:35;9.70;99.90
19561;DHT22;9927;47.792;10.616;2023-04-25T09:49:08;9.80;99.90
19561;DHT22;9927;47.792;10.616;2023-04-25T09:51:36;9.90;99.90
19561;DHT22;9927;47.792;10.616;2023-04-25T09:54:03;9.90;99.90
19561;DHT22;9927;47.792;10.616;2023-04-25T09:56:35;10.10;99.90
19561;DHT22;9927;47.792;10.616;2023-04-25T09:59:03;10.20;99.90
19561;DHT22;9927;47.792;10.616;2023-04-25T10:01:30;10.20;99.90
19561;DHT22;9927;47.792;10.616;2023-04-25T10:03:58;10.20;99.90
19561;DHT22;9927;47.792;10.616;2023-04-25T10:06:28;10.10;99.90
19561;DHT22;9927;47.792;10.616;2023-04-25T10:08:56;9.80;99.90
19561;DHT22;9927;47.792;10.616;2023-04-25T10:11:24;10.00;99.90
19561;DHT22;9927;47.792;10.616;2023-04-25T10:13:53;10.10;99.90
19561;DHT22;9927;47.792;10.616;2023-04-25T10:16:21;9.80;99.90
19561;DHT22;9927;47.792;10.616;2023-04-25T10:18:48;9.70;99.90
19561;DHT22;9927;47.792;10.616;2023-04-25T10:21:17;9.20;99.90
19561;DHT22;9927;47.792;10.616;2023-04-25T10:23:45;9.10;99.90
19561;DHT22;9927;47.792;10.616;2023-04-25T10:26:13;9.20;99.90
19561;DHT22;9927;47.792;10.616;2023-04-25T10:29:07;9.10;99.90
19561;DHT22;9927;47.792;10.616;2023-04-25T10:31:45;9.30;99.90
19561;DHT22;9927;47.792;10.616;2023-04-25T10:34:13;9.50;99.90
19561;DHT22;9927;47.792;10.616;2023-04-25T10:36:42;9.80;99.90
19561;DHT22;9927;47.792;10.616;2023-04-25T10:39:09;9.70;99.90
19561;DHT22;9927;47.792;10.616;2023-04-25T10:41:47;9.60;99.90
19561;DHT22;9927;47.792;10.616;2023-04-25T10:44:17;9.20;99.90
19561;DHT22;9927;47.792;10.616;2023-04-25T10:46:45;9.00;99.90
19561;DHT22;9927;47.792;10.616;2023-04-25T10:52:16;9.10;99.90
19561;DHT22;9927;47.792;10.616;2023-04-25T10:54:48;9.10;99.90
19561;DHT22;9927;47.792;10.616;2023-04-25T10:57:29;9.30;99.90
19561;DHT22;9927;47.792;10.616;2023-04-25T11:00:16;9.40;99.90
19561;DHT22;9927;47.792;10.616;2023-04-25T11:02:51;9.40;99.90
19561;DHT22;9927;47.792;10.616;2023-04-25T11:05:35;9.60;99.90
19561;DHT22;9927;47.792;10.616;2023-04-25T11:08:47;9.50;99.90
19561;DHT22;9927;47.792;10.616;2023-04-25T11:11:18;9.70;99.90
19561;DHT22;9927;47.792;10.616;2023-04-25T11:13:50;9.60;99.90
19561;DHT22;9927;47.792;10.616;2023-04-25T11:16:18;9.60;99.90
19561;DHT22;9927;47.792;10.616;2023-04-25T11:18:57;9.80;99.90
19561;DHT22;9927;47.792;10.616;2023-04-25T11:21:27;10.20;99.90
19561;DHT22;9927;47.792;10.616;2023-04-25T11:23:56;10.40;99.90
19561;DHT22;9927;47.792;10.616;2023-04-25T11:26:24;10.40;99.90
19561;DHT22;9927;47.792;10.616;2023-04-25T11:28:57;10.40;99.90
19561;DHT22;9927;47.792;10.616;2023-04-25T11:31:26;10.40;99.90
19561;DHT22;9927;47.792;10.616;2023-04-25T11:33:56;10.50;99.90
19561;DHT22;9927;47.792;10.616;2023-04-25T11:36:24;10.50;99.90
19561;DHT22;9927;47.792;10.616;2023-04-25T11:38:53;10.30;99.90
19561;DHT22;9927;47.792;10.616;2023-04-25T11:41:20;10.40;99.90
19561;DHT22;9927;47.792;10.616;2023-04-25T11:43:49;10.90;99.90
19561;DHT22;9927;47.792;10.616;2023-04-25T11:46:18;11.20;99.90
19561;DHT22;9927;47.792;10.616;2023-04-25T11:48:47;11.40;99.90
19561;DHT22;9927;47.792;10.616;2023-04-25T11:51:15;11.50;99.90
19561;DHT22;9927;47.792;10.616;2023-04-25T11:53:44;11.60;99.90
19561;DHT22;9927;47.792;10.616;2023-04-25T11:56:12;11.50;99.90
19561;DHT22;9927;47.792;10.616;2023-04-25T11:58:59;11.50;99.90
19561;DHT22;9927;47.792;10.616;2023-04-25T12:01:34;10.70;99.90
19561;DHT22;9927;47.792;10.616;2023-04-25T12:04:24;9.80;99.90
19561;DHT22;9927;47.792;10.616;2023-04-25T12:06:53;9.80;99.90
19561;DHT22;9927;47.792;10.616;2023-04-25T12:09:28;9.70;99.90
19561;DHT22;9927;47.792;10.616;2023-04-25T12:11:57;9.70;99.90
19561;DHT22;9927;47.792;10.616;2023-04-25T12:14:34;9.50;99.90
19561;DHT22;9927;47.792;10.616;2023-04-25T12:17:04;9.10;99.90
19561;DHT22;9927;47.792;10.616;2023-04-25T12:19:35;9.10;99.90
19561;DHT22;9927;47.792;10.616;2023-04-25T12:22:22;9.10;99.90
19561;DHT22;9927;47.792;10.616;2023-04-25T12:24:50;9.30;99.90
19561;DHT22;9927;47.792;10.616;2023-04-25T12:27:18;9.50;99.90
19561;DHT22;9927;47.792;10.616;2023-04-25T12:29:55;9.10;99.90
19561;DHT22;9927;47.792;10.616;2023-04-25T12:32:23;8.70;99.90
19561;DHT22;9927;47.792;10.616;2023-04-25T12:34:50;8.40;99.90
19561;DHT22;9927;47.792;10.616;2023-04-25T12:37:17;8.10;99.90
19561;DHT22;9927;47.792;10.616;2023-04-25T12:39:44;8.00;99.90
19561;DHT22;9927;47.792;10.616;2023-04-25T12:42:12;8.00;99.90
19561;DHT22;9927;47.792;10.616;2023-04-25T12:44:39;8.10;99.90
19561;DHT22;9927;47.792;10.616;2023-04-25T12:47:07;8.50;99.90
19561;DHT22;9927;47.792;10.616;2023-04-25T12:49:35;8.60;99.90
19561;DHT22;9927;47.792;10.616;2023-04-25T12:52:02;9.00;99.90
19561;DHT22;9927;47.792;10.616;2023-04-25T12:54:29;9.30;99.90
19561;DHT22;9927;47.792;10.616;2023-04-25T12:56:57;9.80;99.90
19561;DHT22;9927;47.792;10.616;2023-04-25T12:59:25;10.50;99.90
19561;DHT22;9927;47.792;10.616;2023-04-25T13:01:52;11.10;99.90
19561;DHT22;9927;47.792;10.616;2023-04-25T13:04:20;11.60;99.90
19561;DHT22;9927;47.792;10.616;2023-04-25T13:06:48;11.90;99.90
19561;DHT22;9927;47.792;10.616;2023-04-25T13:09:15;12.10;99.90
19561;DHT22;9927;47.792;10.616;2023-04-25T13:11:43;12.20;99.90
19561;DHT22;9927;47.792;10.616;2023-04-25T13:14:10;12.60;99.90
19561;DHT22;9927;47.792;10.616;2023-04-25T13:16:37;12.80;99.90
19561;DHT22;9927;47.792;10.616;2023-04-25T13:19:05;12.80;99.90
19561;DHT22;9927;47.792;10.616;2023-04-25T13:21:34;12.80;99.90
19561;DHT22;9927;47.792;10.616;2023-04-25T13:24:02;12.80;99.90
19561;DHT22;9927;47.792;10.616;2023-04-25T13:26:30;13.00;99.90
19561;DHT22;9927;47.792;10.616;2023-04-25T13:28:57;13.10;99.90
19561;DHT22;9927;47.792;10.616;2023-04-25T13:31:24;13.10;99.90
19561;DHT22;9927;47.792;10.616;2023-04-25T13:33:52;13.00;99.90
19561;DHT22;9927;47.792;10.616;2023-04-25T13:36:19;12.80;99.90
19561;DHT22;9927;47.792;10.616;2023-04-25T13:38:47;12.50;99.90
19561;DHT22;9927;47.792;10.616;2023-04-25T13:41:16;12.40;99.90
19561;DHT22;9927;47.792;10.616;2023-04-25T13:43:46;12.20;99.90
19561;DHT22;9927;47.792;10.616;2023-04-25T13:46:15;12.40;99.90
19561;DHT22;9927;47.792;10.616;2023-04-25T13:49:01;12.60;99.90
19561;DHT22;9927;47.792;10.616;2023-04-25T13:51:39;12.90;99.90
19561;DHT22;9927;47.792;10.616;2023-04-25T13:54:06;13.10;99.90
19561;DHT22;9927;47.792;10.616;2023-04-25T13:56:33;12.90;99.90
19561;DHT22;9927;47.792;10.616;2023-04-25T13:59:01;12.80;99.90
19561;DHT22;9927;47.792;10.616;2023-04-25T14:01:28;12.70;99.90
19561;DHT22;9927;47.792;10.616;2023-04-25T14:03:57;12.50;99.90
19561;DHT22;9927;47.792;10.616;2023-04-25T14:06:25;12.60;99.90
19561;DHT22;9927;47.792;10.616;2023-04-25T14:08:53;12.60;99.90
19561;DHT22;9927;47.792;10.616;2023-04-25T14:11:21;12.70;99.90
19561;DHT22;9927;47.792;10.616;2023-04-25T14:13:48;12.70;99.90
19561;DHT22;9927;47.792;10.616;2023-04-25T14:16:16;12.60;99.90
19561;DHT22;9927;47.792;10.616;2023-04-25T14:18:44;12.50;99.90
19561;DHT22;9927;47.792;10.616;2023-04-25T14:21:11;12.60;99.90
19561;DHT22;9927;47.792;10.616;2023-04-25T14:23:38;12.50;99.90
19561;DHT22;9927;47.792;10.616;2023-04-25T14:26:06;12.40;99.90
19561;DHT22;9927;47.792;10.616;2023-04-25T14:28:33;12.40;99.90
19561;DHT22;9927;47.792;10.616;2023-04-25T14:31:00;12.40;99.90
19561;DHT22;9927;47.792;10.616;2023-04-25T14:33:27;12.30;99.90
19561;DHT22;9927;47.792;10.616;2023-04-25T14:35:55;11.70;99.90
19561;DHT22;9927;47.792;10.616;2023-04-25T14:38:22;11.60;99.90
19561;DHT22;9927;47.792;10.616;2023-04-25T14:40:51;11.20;99.90
19561;DHT22;9927;47.792;10.616;2023-04-25T14:43:20;10.80;99.90
19561;DHT22;9927;47.792;10.616;2023-04-25T14:45:48;10.90;99.90
19561;DHT22;9927;47.792;10.616;2023-04-25T14:48:15;11.10;99.90
19561;DHT22;9927;47.792;10.616;2023-04-25T14:50:47;11.50;99.90
19561;DHT22;9927;47.792;10.616;2023-04-25T14:53:15;11.50;99.90
19561;DHT22;9927;47.792;10.616;2023-04-25T14:55:42;11.60;99.90
19561;DHT22;9927;47.792;10.616;2023-04-25T14:58:09;11.50;99.90
19561;DHT22;9927;47.792;10.616;2023-04-25T15:00:36;9.50;99.90
19561;DHT22;9927;47.792;10.616;2023-04-25T15:03:04;9.50;99.90
19561;DHT22;9927;47.792;10.616;2023-04-25T15:05:31;8.80;99.90
19561;DHT22;9927;47.792;10.616;2023-04-25T15:07:59;8.70;99.90
19561;DHT22;9927;47.792;10.616;2023-04-25T15:10:27;8.50;99.90
19561;DHT22;9927;47.792;10.616;2023-04-25T15:12:55;8.70;99.90
19561;DHT22;9927;47.792;10.616;2023-04-25T15:15:22;8.90;99.90
19561;DHT22;9927;47.792;10.616;2023-04-25T15:17:53;9.20;99.90
19561;DHT22;9927;47.792;10.616;2023-04-25T15:20:25;9.30;99.90
19561;DHT22;9927;47.792;10.616;2023-04-25T15:22:53;9.50;99.90
19561;DHT22;9927;47.792;10.616;2023-04-25T15:25:21;9.70;99.90
19561;DHT22;9927;47.792;10.616;2023-04-25T15:27:48;10.00;99.90
19561;DHT22;9927;47.792;10.616;2023-04-25T15:30:17;10.30;99.90
19561;DHT22;9927;47.792;10.616;2023-04-25T15:32:45;10.30;99.90
19561;DHT22;9927;47.792;10.616;2023-04-25T15:35:14;10.40;99.90
19561;DHT22;9927;47.792;10.616;2023-04-25T15:37:44;10.40;99.90
19561;DHT22;9927;47.792;10.616;2023-04-25T15:40:14;10.40;99.90
19561;DHT22;9927;47.792;10.616;2023-04-25T15:42:47;10.40;99.90
19561;DHT22;9927;47.792;10.616;2023-04-25T15:45:14;10.60;99.90
19561;DHT22;9927;47.792;10.616;2023-04-25T15:47:44;10.70;99.90
19561;DHT22;9927;47.792;10.616;2023-04-25T15:50:12;10.60;99.90
19561;DHT22;9927;47.792;10.616;2023-04-25T15:52:40;10.70;99.90
19561;DHT22;9927;47.792;10.616;2023-04-25T15:55:09;10.90;99.90
19561;DHT22;9927;47.792;10.616;2023-04-25T15:57:36;10.80;99.90
19561;DHT22;9927;47.792;10.616;2023-04-25T16:00:05;10.80;99.90
19561;DHT22;9927;47.792;10.616;2023-04-25T16:02:50;10.70;99.90
19561;DHT22;9927;47.792;10.616;2023-04-25T16:05:18;10.60;99.90
19561;DHT22;9927;47.792;10.616;2023-04-25T16:07:46;10.60;99.90
19561;DHT22;9927;47.792;10.616;2023-04-25T16:10:14;10.60;99.90
19561;DHT22;9927;47.792;10.616;2023-04-25T16:12:48;10.40;99.90
19561;DHT22;9927;47.792;10.616;2023-04-25T16:15:16;10.40;99.90
19561;DHT22;9927;47.792;10.616;2023-04-25T16:17:43;10.40;99.90
19561;DHT22;9927;47.792;10.616;2023-04-25T16:20:11;10.30;99.90
19561;DHT22;9927;47.792;10.616;2023-04-25T16:22:40;10.30;99.90
19561;DHT22;9927;47.792;10.616;2023-04-25T16:25:09;10.20;99.90
19561;DHT22;9927;47.792;10.616;2023-04-25T16:27:36;10.10;99.90
19561;DHT22;9927;47.792;10.616;2023-04-25T16:30:07;10.20;99.90
19561;DHT22;9927;47.792;10.616;2023-04-25T16:32:35;10.20;99.90
19561;DHT22;9927;47.792;10.616;2023-04-25T16:35:02;10.20;99.90
19561;DHT22;9927;47.792;10.616;2023-04-25T16:37:30;10.20;99.90
19561;DHT22;9927;47.792;10.616;2023-04-25T16:39:57;10.20;99.90
19561;DHT22;9927;47.792;10.616;2023-04-25T16:42:24;10.20;99.90
19561;DHT22;9927;47.792;10.616;2023-04-25T16:44:51;10.10;99.90
19561;DHT22;9927;47.792;10.616;2023-04-25T16:47:19;10.00;99.90
19561;DHT22;9927;47.792;10.616;2023-04-25T16:49:46;10.00;99.90
19561;DHT22;9927;47.792;10.616;2023-04-25T16:52:14;10.00;99.90
19561;DHT22;9927;47.792;10.616;2023-04-25T16:54:42;10.10;99.90
19561;DHT22;9927;47.792;10.616;2023-04-25T16:57:09;9.90;99.90
19561;DHT22;9927;47.792;10.616;2023-04-25T16:59:38;9.60;99.90
19561;DHT22;9927;47.792;10.616;2023-04-25T17:02:06;9.60;99.90
19561;DHT22;9927;47.792;10.616;2023-04-25T17:04:36;9.70;99.90
19561;DHT22;9927;47.792;10.616;2023-04-25T17:07:04;9.40;99.90
19561;DHT22;9927;47.792;10.616;2023-04-25T17:09:31;9.30;99.90
19561;DHT22;9927;47.792;10.616;2023-04-25T17:11:59;9.40;99.90
19561;DHT22;9927;47.792;10.616;2023-04-25T17:14:26;9.50;99.90
19561;DHT22;9927;47.792;10.616;2023-04-25T17:16:53;9.50;99.90
19561;DHT22;9927;47.792;10.616;2023-04-25T17:19:20;9.30;99.90
19561;DHT22;9927;47.792;10.616;2023-04-25T17:21:48;9.30;99.90
19561;DHT22;9927;47.792;10.616;2023-04-25T17:24:15;9.40;99.90
19561;DHT22;9927;47.792;10.616;2023-04-25T17:26:44;9.60;99.90
19561;DHT22;9927;47.792;10.616;2023-04-25T17:29:14;9.70;99.90
19561;DHT22;9927;47.792;10.616;2023-04-25T17:31:43;9.80;99.90
19561;DHT22;9927;47.792;10.616;2023-04-25T17:34:10;10.00;99.90
19561;DHT22;9927;47.792;10.616;2023-04-25T17:36:38;9.80;99.90
19561;DHT22;9927;47.792;10.616;2023-04-25T17:39:05;9.50;99.90
19561;DHT22;9927;47.792;10.616;2023-04-25T17:41:33;9.30;99.90
19561;DHT22;9927;47.792;10.616;2023-04-25T17:44:01;9.10;99.90
19561;DHT22;9927;47.792;10.616;2023-04-25T17:46:28;9.00;99.90
19561;DHT22;9927;47.792;10.616;2023-04-25T17:48:56;8.80;99.90
19561;DHT22;9927;47.792;10.616;2023-04-25T17:51:27;8.60;99.90
19561;DHT22;9927;47.792;10.616;2023-04-25T17:53:55;8.40;99.90
19561;DHT22;9927;47.792;10.616;2023-04-25T17:56:22;8.50;99.90
19561;DHT22;9927;47.792;10.616;2023-04-25T17:58:54;8.50;99.90
19561;DHT22;9927;47.792;10.616;2023-04-25T18:01:22;8.40;99.90
19561;DHT22;9927;47.792;10.616;2023-04-25T18:03:50;8.30;99.90
19561;DHT22;9927;47.792;10.616;2023-04-25T18:06:17;8.00;99.90
19561;DHT22;9927;47.792;10.616;2023-04-25T18:08:46;7.90;99.90
19561;DHT22;9927;47.792;10.616;2023-04-25T18:11:13;7.90;99.90
19561;DHT22;9927;47.792;10.616;2023-04-25T18:13:40;7.90;99.90
19561;DHT22;9927;47.792;10.616;2023-04-25T18:16:08;7.80;99.90
19561;DHT22;9927;47.792;10.616;2023-04-25T18:18:35;7.70;99.90
19561;DHT22;9927;47.792;10.616;2023-04-25T18:21:03;7.40;99.90
19561;DHT22;9927;47.792;10.616;2023-04-25T18:23:33;7.40;99.90
19561;DHT22;9927;47.792;10.616;2023-04-25T18:26:01;7.20;99.90
19561;DHT22;9927;47.792;10.616;2023-04-25T18:28:28;7.10;99.90
19561;DHT22;9927;47.792;10.616;2023-04-25T18:30:56;7.10;99.90
19561;DHT22;9927;47.792;10.616;2023-04-25T18:33:23;7.10;99.90
19561;DHT22;9927;47.792;10.616;2023-04-25T18:35:51;7.10;99.90
19561;DHT22;9927;47.792;10.616;2023-04-25T18:38:21;7.10;99.90
19561;DHT22;9927;47.792;10.616;2023-04-25T18:41:01;7.00;99.90
19561;DHT22;9927;47.792;10.616;2023-04-25T18:43:49;7.10;99.90
19561;DHT22;9927;47.792;10.616;2023-04-25T18:46:17;7.00;99.90
19561;DHT22;9927;47.792;10.616;2023-04-25T18:48:49;7.10;99.90
19561;DHT22;9927;47.792;10.616;2023-04-25T18:51:18;7.10;99.90
19561;DHT22;9927;47.792;10.616;2023-04-25T18:53:45;7.20;99.90
19561;DHT22;9927;47.792;10.616;2023-04-25T18:56:12;7.30;99.90
19561;DHT22;9927;47.792;10.616;2023-04-25T18:58:41;7.30;99.90